Time;durP1;ratioP1;P1;durP2;ratioP2;P2;SDS_P1;SDS_P2;PMS_P1;PMS_P2;Temp;Humidity;BMP_temperature;BMP_pressure;BME280_temperature;BME280_humidity;BME280_pressure;Samples;Min_cycle;Max_cycle;Signal;HPM_P1;HPM_P2
2023/09/11 00:02:08;;;;;;;14.80;13.43;;;25.10;99.90;;;;;;4954566;29;20027;-89
2023/09/11 00:04:46;;;;;;;16.38;13.60;;;25.50;99.90;;;;;;4967651;28;20487;-88
2023/09/11 00:07:29;;;;;;;17.58;13.00;;;24.90;99.90;;;;;;4957490;28;20499;-89
2023/09/11 00:09:55;;;;;;;19.60;14.20;;;25.00;99.90;;;;;;4971167;28;20027;-89
2023/09/11 00:12:35;;;;;;;20.60;13.25;;;25.00;99.90;;;;;;4966160;28;20045;-89
2023/09/11 00:15:01;;;;;;;22.35;14.57;;;25.20;99.90;;;;;;4946023;29;20066;-88
2023/09/11 00:17:30;;;;;;;17.65;13.68;;;25.30;99.90;;;;;;4954376;29;20485;-88
2023/09/11 00:19:55;;;;;;;18.33;13.27;;;25.00;99.90;;;;;;4953506;29;20488;-90
2023/09/11 00:22:27;;;;;;;14.25;12.85;;;25.00;99.90;;;;;;4952334;29;20089;-89
2023/09/11 00:25:08;;;;;;;19.95;14.57;;;25.00;99.90;;;;;;4954253;29;20208;-89
2023/09/11 00:27:33;;;;;;;17.67;14.52;;;24.90;99.90;;;;;;4953821;29;20028;-89
2023/09/11 00:30:07;;;;;;;21.17;13.88;;;25.00;99.90;;;;;;4954467;29;20098;-91
2023/09/11 00:32:33;;;;;;;15.35;13.70;;;24.90;99.90;;;;;;4954426;29;20170;-89
2023/09/11 00:35:11;;;;;;;21.95;14.13;;;25.60;99.90;;;;;;4960720;28;20039;-89
2023/09/11 00:37:55;;;;;;;16.35;14.27;;;24.80;99.90;;;;;;4964604;29;20023;-91
2023/09/11 00:40:21;;;;;;;17.85;13.82;;;24.90;99.90;;;;;;4936504;29;20059;-90
2023/09/11 00:42:52;;;;;;;15.07;12.98;;;25.40;99.90;;;;;;4943569;29;20404;-90
2023/09/11 00:45:34;;;;;;;25.42;15.45;;;24.80;99.90;;;;;;4976101;28;20023;-89
2023/09/11 00:48:18;;;;;;;15.20;13.65;;;24.80;99.90;;;;;;4974212;28;20048;-90
2023/09/11 00:50:56;;;;;;;18.67;14.60;;;24.80;99.90;;;;;;4955219;29;20031;-89
2023/09/11 00:53:22;;;;;;;20.88;14.30;;;24.80;99.90;;;;;;4953727;28;20039;-90
2023/09/11 00:56:02;;;;;;;24.05;14.60;;;24.80;99.90;;;;;;4953655;28;20030;-90
2023/09/11 00:58:28;;;;;;;16.17;14.10;;;24.80;99.90;;;;;;4954104;29;20125;-90
2023/09/11 01:01:15;;;;;;;19.27;13.68;;;24.80;99.90;;;;;;4954100;29;20027;-90
2023/09/11 01:03:53;;;;;;;20.63;14.32;;;24.70;99.90;;;;;;4955054;28;20019;-90
2023/09/11 01:06:38;;;;;;;19.95;14.43;;;24.80;99.90;;;;;;4957362;29;20031;-89
2023/09/11 01:09:04;;;;;;;17.05;15.25;;;24.70;99.90;;;;;;4956219;29;20051;-90
2023/09/11 01:11:30;;;;;;;23.30;15.35;;;24.80;99.90;;;;;;4957323;29;20035;-90
2023/09/11 01:13:57;;;;;;;21.88;15.82;;;24.70;99.90;;;;;;4965121;28;20089;-89
2023/09/11 01:16:40;;;;;;;17.17;15.38;;;24.70;99.90;;;;;;4974212;28;20027;-90
2023/09/11 01:19:22;;;;;;;36.45;15.07;;;24.60;99.90;;;;;;4964748;28;20035;-89
2023/09/11 01:22:12;;;;;;;20.27;15.68;;;24.70;99.90;;;;;;4976963;28;20467;-90
2023/09/11 01:24:50;;;;;;;;;;;24.60;99.90;;;;;;4973150;28;20167;-90
2023/09/11 01:27:37;;;;;;;20.88;16.13;;;24.60;99.90;;;;;;4970450;28;19913;-91
2023/09/11 01:30:05;;;;;;;18.02;16.10;;;24.60;99.90;;;;;;4980573;28;20031;-91
2023/09/11 01:32:32;;;;;;;25.15;16.45;;;24.50;99.90;;;;;;4975670;28;20504;-90
2023/09/11 01:34:57;;;;;;;17.58;15.25;;;24.50;99.90;;;;;;4974714;28;20027;-90
2023/09/11 01:37:23;;;;;;;17.08;15.40;;;24.50;99.90;;;;;;4975789;28;20050;-90
2023/09/11 01:39:49;;;;;;;18.40;15.98;;;24.50;99.90;;;;;;4968252;28;20058;-90
2023/09/11 01:42:19;;;;;;;19.33;15.75;;;24.50;99.90;;;;;;4965863;28;20094;-90
2023/09/11 01:44:46;;;;;;;18.23;15.00;;;24.40;99.90;;;;;;4967453;28;20471;-89
2023/09/11 01:47:19;;;;;;;21.42;15.98;;;24.40;99.90;;;;;;4960565;28;20053;-90
2023/09/11 01:49:47;;;;;;;22.10;15.50;;;24.30;99.90;;;;;;4989540;28;20007;-90
2023/09/11 01:52:13;;;;;;;21.35;16.67;;;24.40;99.90;;;;;;4995476;28;20031;-90
2023/09/11 01:54:39;;;;;;;24.77;17.25;;;24.40;99.90;;;;;;4998618;28;20030;-90
2023/09/11 01:57:06;;;;;;;28.33;16.50;;;24.30;99.90;;;;;;4967359;28;20471;-90
2023/09/11 01:59:32;;;;;;;23.15;15.82;;;24.40;99.90;;;;;;4962928;28;20015;-89
2023/09/11 02:01:58;;;;;;;17.90;16.17;;;24.50;99.90;;;;;;4975789;28;20030;-90
2023/09/11 02:04:23;;;;;;;17.40;15.45;;;24.40;99.90;;;;;;4975263;28;20030;-90
2023/09/11 02:06:49;;;;;;;18.38;14.77;;;24.30;99.90;;;;;;4974709;28;20129;-90
2023/09/11 02:09:14;;;;;;;25.58;16.40;;;24.30;99.90;;;;;;5014141;23;20047;-89
2023/09/11 02:11:40;;;;;;;19.48;16.48;;;24.30;99.90;;;;;;4961445;28;20586;-90
2023/09/11 02:14:06;;;;;;;23.75;16.00;;;24.30;99.90;;;;;;4966568;28;20034;-91
2023/09/11 02:16:31;;;;;;;24.48;17.02;;;24.20;99.90;;;;;;4969649;28;20122;-89
2023/09/11 02:18:57;;;;;;;18.95;17.02;;;24.10;99.90;;;;;;4955725;29;20019;-90
2023/09/11 02:21:23;;;;;;;20.65;17.80;;;24.20;99.90;;;;;;4970954;28;20030;-90
2023/09/11 02:23:48;;;;;;;24.08;17.33;;;24.10;99.90;;;;;;4967067;28;20038;-89
2023/09/11 02:26:14;;;;;;;22.48;16.85;;;24.10;99.90;;;;;;4971416;29;20034;-87
2023/09/11 02:28:51;;;;;;;25.13;17.35;;;24.10;99.90;;;;;;4972199;28;20499;-88
2023/09/11 02:31:32;;;;;;;21.60;18.17;;;24.10;99.90;;;;;;4969729;28;20066;-88
2023/09/11 02:33:58;;;;;;;21.15;16.67;;;24.10;99.90;;;;;;4967163;28;20078;-89
2023/09/11 02:36:24;;;;;;;19.13;17.00;;;24.10;99.90;;;;;;4975508;28;20027;-88
2023/09/11 02:39:04;;;;;;;20.52;17.27;;;24.00;99.90;;;;;;4970131;28;20027;-88
2023/09/11 02:41:29;;;;;;;22.33;17.20;;;23.90;99.90;;;;;;4974821;28;20105;-89
2023/09/11 02:43:55;;;;;;;23.60;16.77;;;23.90;99.90;;;;;;4973177;28;20102;-89
2023/09/11 02:46:21;;;;;;;24.35;16.77;;;23.90;99.90;;;;;;4974894;28;20031;-89
2023/09/11 02:48:47;;;;;;;26.65;17.48;;;23.90;99.90;;;;;;4966602;28;20138;-93
2023/09/11 02:51:19;;;;;;;20.83;16.63;;;23.90;99.90;;;;;;4965708;28;20038;-90
2023/09/11 02:53:45;;;;;;;21.42;17.73;;;23.80;99.90;;;;;;4980166;28;20031;-89
2023/09/11 02:56:10;;;;;;;27.98;18.27;;;23.80;99.90;;;;;;4987705;28;20032;-89
2023/09/11 02:58:36;;;;;;;18.80;16.83;;;23.70;99.90;;;;;;4967790;28;20369;-89
2023/09/11 03:01:05;;;;;;;20.35;18.13;;;23.60;99.90;;;;;;4955960;28;20114;-88
2023/09/11 03:03:31;;;;;;;24.42;17.45;;;23.60;99.90;;;;;;4964680;28;20045;-90
2023/09/11 03:06:10;;;;;;;22.38;16.92;;;23.60;99.90;;;;;;4970414;28;20483;-89
2023/09/11 03:08:35;;;;;;;20.85;16.55;;;23.90;99.90;;;;;;4974386;28;20058;-89
2023/09/11 03:11:19;;;;;;;24.42;18.30;;;23.70;99.90;;;;;;4974368;28;20031;-90
2023/09/11 03:13:45;;;;;;;19.20;17.33;;;23.50;99.90;;;;;;4974314;28;20035;-89
2023/09/11 03:16:22;;;;;;;19.98;18.02;;;23.50;99.90;;;;;;4957162;28;20391;-89
2023/09/11 03:18:48;;;;;;;25.50;17.08;;;23.80;99.90;;;;;;4968758;28;20054;-89
2023/09/11 03:21:20;;;;;;;20.83;17.50;;;23.50;99.90;;;;;;4989225;28;20019;-88
2023/09/11 03:23:54;;;;;;;20.80;16.90;;;23.50;99.90;;;;;;4969503;28;20383;-89
2023/09/11 03:26:20;;;;;;;18.70;16.80;;;23.80;99.90;;;;;;4973869;28;20033;-89
2023/09/11 03:28:49;;;;;;;19.20;16.65;;;23.50;99.90;;;;;;4970623;28;20023;-90
2023/09/11 03:31:15;;;;;;;25.63;18.13;;;23.50;99.90;;;;;;4973384;28;20046;-89
2023/09/11 03:33:53;;;;;;;26.05;17.42;;;23.40;99.90;;;;;;4961486;28;20070;-89
2023/09/11 03:36:18;;;;;;;23.63;17.33;;;24.00;99.90;;;;;;4963918;28;20024;-90
2023/09/11 03:38:53;;;;;;;19.70;16.10;;;23.40;99.90;;;;;;4972859;28;20031;-89
2023/09/11 03:41:19;;;;;;;23.45;16.65;;;23.40;99.90;;;;;;4950115;29;20031;-90
2023/09/11 03:44:02;;;;;;;22.60;17.17;;;23.30;99.90;;;;;;4955592;28;20260;-90
2023/09/11 03:46:28;;;;;;;21.40;15.90;;;23.30;99.90;;;;;;4957601;28;20110;-91
2023/09/11 03:49:07;;;;;;;21.15;15.95;;;23.30;99.90;;;;;;4972268;28;20113;-92
2023/09/11 03:51:32;;;;;;;22.50;15.60;;;23.30;99.90;;;;;;4974064;28;20038;-92
2023/09/11 03:53:59;;;;;;;17.52;15.63;;;23.30;99.90;;;;;;4962366;28;20035;-91
2023/09/11 03:56:38;;;;;;;22.98;16.90;;;23.30;99.90;;;;;;4976682;28;20031;-91
2023/09/11 03:59:03;;;;;;;19.25;16.58;;;23.30;99.90;;;;;;4967100;28;20129;-91
2023/09/11 04:01:35;;;;;;;18.95;14.98;;;23.40;99.90;;;;;;4997725;28;20022;-90
2023/09/11 04:04:00;;;;;;;22.50;16.55;;;23.40;99.90;;;;;;4971803;28;20264;-91
2023/09/11 04:06:35;;;;;;;25.02;15.65;;;23.60;99.90;;;;;;4969156;28;20030;-91
2023/09/11 04:09:01;;;;;;;20.67;15.25;;;23.80;99.90;;;;;;4938702;28;20054;-90
2023/09/11 04:11:36;;;;;;;22.88;16.02;;;23.40;99.90;;;;;;4953801;29;20085;-90
2023/09/11 04:14:01;;;;;;;19.80;15.38;;;23.30;99.90;;;;;;4955028;28;20463;-90
2023/09/11 04:16:33;;;;;;;28.35;17.05;;;23.30;99.90;;;;;;4971569;28;20023;-89
2023/09/11 04:18:59;;;;;;;22.85;16.48;;;23.30;99.90;;;;;;4960068;28;20042;-90
2023/09/11 04:21:28;;;;;;;20.52;15.82;;;23.20;99.90;;;;;;4967667;28;20529;-90
2023/09/11 04:23:53;;;;;;;21.70;16.48;;;23.20;99.90;;;;;;4956037;28;20491;-90
2023/09/11 04:26:34;;;;;;;22.52;15.55;;;23.30;99.90;;;;;;4968093;28;20041;-89
2023/09/11 04:28:59;;;;;;;18.25;16.48;;;23.10;99.90;;;;;;4962691;28;20027;-90
2023/09/11 04:31:38;;;;;;;24.63;17.55;;;23.60;99.90;;;;;;4967598;28;20450;-90
2023/09/11 04:34:04;;;;;;;21.08;14.85;;;23.50;99.90;;;;;;4956349;28;20042;-90
2023/09/11 04:36:35;;;;;;;28.63;16.25;;;23.80;99.90;;;;;;4967506;28;20030;-90
2023/09/11 04:39:01;;;;;;;22.02;16.33;;;23.10;99.90;;;;;;4958623;29;20023;-90
2023/09/11 04:41:45;;;;;;;24.83;17.15;;;23.10;99.90;;;;;;4975655;28;20390;-90
2023/09/11 04:44:11;;;;;;;20.35;15.20;;;23.00;99.90;;;;;;4956988;28;20039;-91
2023/09/11 04:46:51;;;;;;;20.48;16.38;;;23.00;99.90;;;;;;4960014;28;20026;-90
2023/09/11 04:49:17;;;;;;;19.60;16.13;;;22.90;99.90;;;;;;4961640;28;20039;-89
2023/09/11 04:51:55;;;;;;;19.67;15.90;;;23.00;99.90;;;;;;4973331;28;20027;-90
2023/09/11 04:54:20;;;;;;;18.55;15.93;;;23.50;99.90;;;;;;4938076;29;20032;-90
2023/09/11 04:56:46;;;;;;;21.55;15.88;;;22.90;99.90;;;;;;4940354;29;20028;-90
2023/09/11 04:59:11;;;;;;;18.08;16.17;;;23.20;99.90;;;;;;4956767;28;20023;-90
2023/09/11 05:01:52;;;;;;;21.40;15.77;;;22.90;99.90;;;;;;4995943;28;20030;-89
2023/09/11 05:04:18;;;;;;;25.00;15.90;;;22.90;99.90;;;;;;4994693;28;20050;-89
2023/09/11 05:06:44;;;;;;;22.92;14.93;;;22.90;99.90;;;;;;4978381;28;20035;-90
2023/09/11 05:09:09;;;;;;;16.20;14.10;;;23.00;99.90;;;;;;4970168;28;20070;-89
2023/09/11 05:11:35;;;;;;;17.40;14.02;;;22.90;99.90;;;;;;4993539;28;20014;-89
2023/09/11 05:14:01;;;;;;;19.30;14.15;;;23.00;99.90;;;;;;4969909;28;20043;-88
2023/09/11 05:16:26;;;;;;;22.65;14.18;;;22.90;99.90;;;;;;4971164;28;20020;-89
2023/09/11 05:18:52;;;;;;;25.63;13.77;;;23.00;99.90;;;;;;4957440;28;20493;-89
2023/09/11 05:21:24;;;;;;;19.95;13.70;;;22.90;99.90;;;;;;4957771;29;20034;-91
2023/09/11 05:23:49;;;;;;;16.73;13.85;;;23.00;99.90;;;;;;4957299;28;20034;-90
2023/09/11 05:26:15;;;;;;;24.48;14.43;;;23.60;99.90;;;;;;4957753;29;20028;-88
2023/09/11 05:28:59;;;;;;;15.82;14.13;;;22.90;99.90;;;;;;4957778;28;20035;-85
2023/09/11 05:31:33;;;;;;;25.77;14.90;;;22.90;99.90;;;;;;4964041;28;20480;-84
2023/09/11 05:33:58;;;;;;;15.50;13.95;;;22.90;99.90;;;;;;4958896;28;20062;-83
2023/09/11 05:36:24;;;;;;;16.60;13.70;;;22.90;99.90;;;;;;4966289;28;20379;-84
2023/09/11 05:38:49;;;;;;;19.33;14.15;;;22.90;99.90;;;;;;4958046;28;20531;-84
2023/09/11 05:41:15;;;;;;;18.38;14.35;;;22.80;99.90;;;;;;4962084;28;20079;-83
2023/09/11 05:43:41;;;;;;;17.55;13.35;;;23.40;99.90;;;;;;4954582;28;20027;-83
2023/09/11 05:46:08;;;;;;;19.65;14.45;;;22.90;99.90;;;;;;4961587;28;20070;-83
2023/09/11 05:48:33;;;;;;;14.68;13.07;;;22.90;99.90;;;;;;4957070;28;20030;-83
2023/09/11 05:51:00;;;;;;;18.05;13.45;;;22.90;99.90;;;;;;4962608;28;20036;-83
2023/09/11 05:53:26;;;;;;;19.80;14.98;;;22.80;99.90;;;;;;4950991;28;20036;-83
2023/09/11 05:55:52;;;;;;;15.70;14.15;;;23.00;99.90;;;;;;4945987;28;20115;-83
2023/09/11 05:58:18;;;;;;;19.27;13.90;;;22.80;99.90;;;;;;4955115;28;20035;-87
2023/09/11 06:00:56;;;;;;;20.00;14.48;;;22.80;99.90;;;;;;4948652;28;20026;-87
2023/09/11 06:03:21;;;;;;;20.75;13.75;;;22.10;99.90;;;;;;4952815;29;20099;-86
2023/09/11 06:05:47;;;;;;;19.58;15.32;;;22.70;99.90;;;;;;4978228;28;20011;-86
2023/09/11 06:08:38;;;;;;;18.40;13.45;;;22.70;99.90;;;;;;4973546;28;20066;-86
2023/09/11 06:11:03;;;;;;;23.70;15.32;;;22.70;99.90;;;;;;4965587;28;20111;-86
2023/09/11 06:13:51;;;;;;;16.30;14.60;;;23.60;99.90;;;;;;4951168;28;20458;-86
2023/09/11 06:16:16;;;;;;;20.17;13.68;;;22.60;99.90;;;;;;4952611;28;20111;-86
2023/09/11 06:18:42;;;;;;;19.55;14.65;;;22.60;99.90;;;;;;4947944;28;20535;-87
2023/09/11 06:21:26;;;;;;;23.65;15.50;;;22.60;99.90;;;;;;4954019;28;20056;-86
2023/09/11 06:23:52;;;;;;;19.50;13.18;;;22.60;99.90;;;;;;4953696;28;20050;-86
2023/09/11 06:26:17;;;;;;;23.25;14.02;;;22.60;99.90;;;;;;5054300;23;20087;-86
2023/09/11 06:29:05;;;;;;;22.08;14.30;;;22.60;99.90;;;;;;4955982;29;20106;-87
2023/09/11 06:31:31;;;;;;;19.25;15.23;;;22.00;99.90;;;;;;4961153;28;20027;-86
2023/09/11 06:33:56;;;;;;;17.40;15.43;;;22.60;99.90;;;;;;4967007;28;20043;-86
2023/09/11 06:36:41;;;;;;;19.27;15.07;;;22.60;99.90;;;;;;4972870;28;20033;-86
2023/09/11 06:39:07;;;;;;;22.77;14.57;;;22.60;99.90;;;;;;4962488;28;20030;-86
2023/09/11 06:41:42;;;;;;;18.55;14.85;;;22.70;99.90;;;;;;4974377;28;20034;-87
2023/09/11 06:44:07;;;;;;;24.50;16.73;;;22.70;99.90;;;;;;4965464;28;20031;-86
2023/09/11 06:46:33;;;;;;;23.05;15.68;;;23.20;99.90;;;;;;4972612;28;20364;-87
2023/09/11 06:49:11;;;;;;;28.45;16.77;;;22.60;99.90;;;;;;4974146;28;20122;-86
2023/09/11 06:51:36;;;;;;;24.77;17.45;;;22.70;99.90;;;;;;4965183;28;20483;-86
2023/09/11 06:54:03;;;;;;;23.45;15.73;;;22.70;99.90;;;;;;4955621;29;20035;-86
2023/09/11 06:56:47;;;;;;;23.08;16.13;;;22.70;99.90;;;;;;4963174;28;20034;-85
2023/09/11 06:59:13;;;;;;;22.48;16.02;;;22.90;99.90;;;;;;4968384;28;20026;-86
2023/09/11 07:01:40;;;;;;;31.42;18.42;;;22.80;99.90;;;;;;4972634;28;20060;-86
2023/09/11 07:04:11;;;;;;;23.13;17.30;;;23.30;99.90;;;;;;4966561;28;20050;-87
2023/09/11 07:06:52;;;;;;;20.35;17.52;;;22.80;99.90;;;;;;4920429;29;20036;-86
2023/09/11 07:09:17;;;;;;;20.83;17.95;;;22.90;99.90;;;;;;4968456;28;20058;-86
2023/09/11 07:11:43;;;;;;;29.85;18.90;;;23.00;99.90;;;;;;4977737;28;20027;-86
2023/09/11 07:14:12;;;;;;;23.88;18.25;;;23.00;99.90;;;;;;4971230;28;20052;-86
2023/09/11 07:16:38;;;;;;;26.13;18.20;;;23.00;99.90;;;;;;4988478;28;20023;-94
2023/09/11 07:19:08;;;;;;;18.60;16.63;;;23.00;99.90;;;;;;4974715;28;20050;-94
2023/09/11 07:21:34;;;;;;;27.42;18.48;;;23.00;99.90;;;;;;4958731;29;20023;-89
2023/09/11 07:24:01;;;;;;;33.35;18.55;;;23.10;99.90;;;;;;4956263;28;20514;-91
2023/09/11 07:26:26;;;;;;;28.40;19.48;;;23.10;99.90;;;;;;4957477;29;20562;-91
2023/09/11 07:28:57;;;;;;;22.65;20.25;;;23.10;99.90;;;;;;4956359;29;20028;-90
2023/09/11 07:31:24;;;;;;;27.52;18.70;;;23.10;99.90;;;;;;4956686;28;20034;-91
2023/09/11 07:33:51;;;;;;;35.28;22.15;;;23.10;99.90;;;;;;4963298;28;20061;-91
2023/09/11 07:36:18;;;;;;;24.38;19.70;;;23.20;99.90;;;;;;4966563;28;20037;-92
2023/09/11 07:38:46;;;;;;;35.78;22.23;;;23.10;99.90;;;;;;4964063;28;20035;-91
2023/09/11 07:41:15;;;;;;;28.80;22.63;;;23.20;99.90;;;;;;4962576;28;20023;-92
2023/09/11 07:43:42;;;;;;;28.88;23.23;;;23.30;99.90;;;;;;4966646;28;20029;-92
2023/09/11 07:46:09;;;;;;;28.88;21.88;;;23.20;99.90;;;;;;4957236;28;20035;-90
2023/09/11 07:48:35;;;;;;;30.25;22.90;;;23.20;99.90;;;;;;4954579;28;20024;-91
2023/09/11 07:51:01;;;;;;;32.97;23.17;;;23.20;99.90;;;;;;4964178;28;20034;-91
2023/09/11 07:53:28;;;;;;;29.70;22.98;;;23.20;99.90;;;;;;4976380;28;20039;-90
2023/09/11 07:55:54;;;;;;;34.72;24.30;;;23.30;99.90;;;;;;4978277;28;20007;-91
2023/09/11 07:58:19;;;;;;;30.55;22.63;;;23.30;99.90;;;;;;4990395;28;20386;-92
2023/09/11 08:00:46;;;;;;;29.45;23.60;;;23.30;99.90;;;;;;4968632;28;20420;-83
2023/09/11 08:03:12;;;;;;;40.45;26.10;;;23.30;99.90;;;;;;4968759;28;20081;-86
2023/09/11 08:05:37;;;;;;;27.73;24.77;;;23.30;99.90;;;;;;4954244;28;20460;-87
2023/09/11 08:08:03;;;;;;;32.75;23.35;;;23.40;99.90;;;;;;4955472;28;20034;-86
2023/09/11 08:10:29;;;;;;;32.75;24.00;;;23.40;99.90;;;;;;4969088;28;20490;-83
2023/09/11 08:12:55;;;;;;;31.15;23.95;;;23.40;99.90;;;;;;4972862;28;20027;-87
2023/09/11 08:15:21;;;;;;;33.67;22.27;;;23.50;99.90;;;;;;4956519;28;20111;-91
2023/09/11 08:17:46;;;;;;;33.03;24.83;;;23.50;99.90;;;;;;4980218;28;20015;-88
2023/09/11 08:20:14;;;;;;;39.83;26.10;;;23.50;99.90;;;;;;4974614;28;20077;-88
2023/09/11 08:22:41;;;;;;;33.97;26.73;;;23.50;99.90;;;;;;4966247;28;20379;-91
2023/09/11 08:25:09;;;;;;;33.28;22.65;;;23.50;99.90;;;;;;4956118;28;20050;-91
2023/09/11 08:27:34;;;;;;;33.50;24.83;;;23.50;99.90;;;;;;4954176;28;20042;-85
2023/09/11 08:30:01;;;;;;;34.20;25.70;;;23.60;99.90;;;;;;5044054;23;20131;-85
2023/09/11 08:32:27;;;;;;;31.90;23.23;;;23.60;99.90;;;;;;4974306;28;20051;-89
2023/09/11 08:34:53;;;;;;;36.47;24.80;;;23.60;99.90;;;;;;4973967;28;20120;-84
2023/09/11 08:37:19;;;;;;;35.17;26.30;;;23.70;99.90;;;;;;4978582;28;20542;-87
2023/09/11 08:39:45;;;;;;;34.70;26.90;;;23.70;99.90;;;;;;4973499;28;20026;-90
2023/09/11 08:42:11;;;;;;;40.63;28.27;;;23.70;99.90;;;;;;4975924;28;20030;-91
2023/09/11 08:44:42;;;;;;;38.58;26.73;;;23.70;99.90;;;;;;4981224;28;20113;-94
2023/09/11 08:47:18;;;;;;;39.10;24.63;;;23.80;99.90;;;;;;4972368;28;20042;-91
2023/09/11 08:50:03;;;;;;;33.80;25.77;;;23.80;99.90;;;;;;4977484;28;20022;-91
2023/09/11 08:52:45;;;;;;;35.53;25.95;;;23.40;99.90;;;;;;5070440;23;21169;-94
2023/09/11 08:55:11;;;;;;;36.05;26.30;;;23.80;99.90;;;;;;4994353;28;20199;-89
2023/09/11 08:57:40;;;;;;;42.08;28.27;;;23.80;99.90;;;;;;4971313;28;20035;-84
2023/09/11 09:00:09;;;;;;;36.65;26.98;;;23.90;99.90;;;;;;4953471;28;20031;-85
2023/09/11 09:02:36;;;;;;;34.70;27.33;;;23.80;99.90;;;;;;4977332;28;20038;-87
2023/09/11 09:05:04;;;;;;;36.90;25.48;;;24.00;99.90;;;;;;4983972;28;20518;-85
2023/09/11 09:07:31;;;;;;;35.50;25.85;;;23.90;99.90;;;;;;4981329;28;20109;-86
2023/09/11 09:09:57;;;;;;;37.90;26.98;;;23.80;99.90;;;;;;4991836;28;20314;-87
2023/09/11 09:12:27;;;;;;;34.85;25.63;;;23.90;99.90;;;;;;4978010;28;20046;-86
2023/09/11 09:14:53;;;;;;;35.20;26.00;;;24.00;99.90;;;;;;4987176;28;20027;-88
2023/09/11 09:17:18;;;;;;;32.20;23.92;;;24.00;99.90;;;;;;4976424;28;20023;-86
2023/09/11 09:19:44;;;;;;;35.70;24.67;;;24.10;99.90;;;;;;4985053;28;20029;-88
2023/09/11 09:22:12;;;;;;;37.40;25.90;;;24.10;99.90;;;;;;4986737;28;20466;-84
2023/09/11 09:24:47;;;;;;;34.78;24.75;;;24.10;99.90;;;;;;4979980;28;20038;-84
2023/09/11 09:27:13;;;;;;;34.35;25.73;;;24.20;99.90;;;;;;4975115;28;20022;-83
2023/09/11 09:29:39;;;;;;;37.17;23.10;;;24.20;99.90;;;;;;4971106;28;20030;-81
2023/09/11 09:32:07;;;;;;;35.95;24.80;;;24.20;99.90;;;;;;4977201;28;20544;-81
2023/09/11 09:34:34;;;;;;;31.73;23.90;;;24.30;99.90;;;;;;4990871;28;20104;-83
2023/09/11 09:37:01;;;;;;;34.60;25.02;;;24.30;99.90;;;;;;4991176;28;20030;-83
2023/09/11 09:39:28;;;;;;;30.45;23.48;;;24.40;99.90;;;;;;4992022;28;20034;-83
2023/09/11 09:41:55;;;;;;;27.02;17.38;;;24.30;99.90;;;;;;4993340;28;20041;-84
2023/09/11 09:44:41;;;;;;;19.25;9.98;;;24.40;99.90;;;;;;4994736;28;20030;-83
2023/09/11 09:47:07;;;;;;;16.50;9.85;;;24.40;99.90;;;;;;4994579;28;20346;-92
2023/09/11 09:49:45;;;;;;;11.02;7.10;;;24.50;99.90;;;;;;5009776;28;20014;-94
2023/09/11 09:52:14;;;;;;;9.25;6.45;;;24.60;99.90;;;;;;4992925;28;20037;-93
2023/09/11 09:54:59;;;;;;;15.95;6.68;;;24.60;99.90;;;;;;4979218;28;20143;-94
2023/09/11 09:57:26;;;;;;;10.00;6.97;;;24.60;99.90;;;;;;4979773;28;20022;-95
2023/09/11 09:59:57;;;;;;;10.32;7.80;;;24.60;99.90;;;;;;5007015;28;20022;-94
2023/09/11 10:02:38;;;;;;;6.22;5.55;;;24.70;99.90;;;;;;4996619;28;20479;-94
2023/09/11 10:05:06;;;;;;;6.55;4.93;;;24.70;99.90;;;;;;4976717;28;20046;-93
2023/09/11 10:07:44;;;;;;;14.07;4.93;;;24.80;99.90;;;;;;4977806;28;20140;-92
2023/09/11 10:10:26;;;;;;;5.32;4.93;;;24.80;99.90;;;;;;4996593;28;20157;-88
2023/09/11 10:13:09;;;;;;;7.40;6.13;;;24.90;99.90;;;;;;4994658;28;20118;-91
2023/09/11 10:15:46;;;;;;;14.45;6.30;;;24.90;99.90;;;;;;4973347;28;20031;-91
2023/09/11 10:18:12;;;;;;;7.80;6.55;;;25.00;99.90;;;;;;4981216;28;20039;-91
2023/09/11 10:20:39;;;;;;;6.25;5.53;;;25.00;99.90;;;;;;4987769;28;20050;-90
2023/09/11 10:23:21;;;;;;;5.63;5.10;;;25.00;99.90;;;;;;4980969;28;20520;-90
2023/09/11 10:26:01;;;;;;;5.82;4.07;;;25.00;99.90;;;;;;4975715;28;20031;-92
2023/09/11 10:28:33;;;;;;;7.28;4.30;;;25.00;99.90;;;;;;4986402;28;20084;-92
2023/09/11 10:31:20;;;;;;;6.80;4.95;;;25.00;99.90;;;;;;4999937;28;20042;-90
2023/09/11 10:33:57;;;;;;;7.63;5.10;;;25.00;99.90;;;;;;5000931;28;20093;-91
2023/09/11 10:36:27;;;;;;;10.73;5.30;;;25.10;99.90;;;;;;4995951;28;20101;-91
2023/09/11 10:38:56;;;;;;;9.98;4.30;;;25.20;99.90;;;;;;5003270;28;20090;-94
2023/09/11 10:41:37;;;;;;;4.67;4.27;;;25.20;99.90;;;;;;4987569;28;20105;-90
2023/09/11 10:44:03;;;;;;;8.18;4.90;;;25.20;99.90;;;;;;4984701;28;20267;-89
2023/09/11 10:46:52;;;;;;;10.77;5.95;;;25.30;99.90;;;;;;4986534;28;20045;-88
2023/09/11 10:49:19;;;;;;;8.00;5.28;;;24.50;99.90;;;;;;4991765;28;20031;-86
2023/09/11 10:51:47;;;;;;;6.03;3.72;;;25.60;99.90;;;;;;4994031;28;20026;-87
2023/09/11 10:54:33;;;;;;;7.43;3.78;;;25.30;99.90;;;;;;5004955;28;20398;-87
2023/09/11 10:56:59;;;;;;;7.40;5.50;;;25.70;99.90;;;;;;4999282;28;20022;-87
2023/09/11 10:59:25;;;;;;;10.23;5.90;;;26.30;99.90;;;;;;4992843;28;20026;-87
2023/09/11 11:02:09;;;;;;;10.57;5.50;;;25.40;99.90;;;;;;5014285;28;20052;-87
2023/09/11 11:04:35;;;;;;;10.20;5.63;;;25.30;99.90;;;;;;4988755;28;20029;-87
2023/09/11 11:07:01;;;;;;;12.43;5.57;;;25.40;99.90;;;;;;4997701;28;20525;-87
2023/09/11 11:09:52;;;;;;;7.82;5.25;;;25.40;99.90;;;;;;5002260;28;20039;-87
2023/09/11 11:12:31;;;;;;;8.10;6.32;;;25.40;99.90;;;;;;4997573;28;20039;-88
2023/09/11 11:15:22;;;;;;;11.10;5.82;;;25.40;99.90;;;;;;4990892;28;20053;-87
2023/09/11 11:18:27;;;;;;;9.43;5.80;;;25.40;99.90;;;;;;4986532;28;20102;-87
2023/09/11 11:20:59;;;;;;;12.75;6.32;;;25.40;99.90;;;;;;4991725;28;20034;-86
2023/09/11 11:23:26;;;;;;;8.80;6.30;;;25.40;99.90;;;;;;4993771;28;20046;-87
2023/09/11 11:25:52;;;;;;;9.57;6.82;;;25.50;99.90;;;;;;5012706;28;20112;-87
2023/09/11 11:28:22;;;;;;;9.63;5.80;;;25.50;99.90;;;;;;4995421;28;20147;-87
2023/09/11 11:30:54;;;;;;;8.80;6.35;;;25.50;99.90;;;;;;4993741;28;20117;-87
2023/09/11 11:33:24;;;;;;;11.23;6.68;;;25.40;99.90;;;;;;4994285;28;20537;-85
2023/09/11 11:35:51;;;;;;;;;;;25.60;99.90;;;;;;4992364;28;20030;-86
2023/09/11 11:38:21;;;;;;;11.73;7.45;;;25.60;99.90;;;;;;5000749;28;19918;-86
2023/09/11 11:40:47;;;;;;;11.27;6.95;;;25.30;99.90;;;;;;4994865;28;20030;-86
2023/09/11 11:43:14;;;;;;;15.13;8.23;;;25.70;99.90;;;;;;4990160;28;20113;-86
2023/09/11 11:45:57;;;;;;;10.40;7.15;;;25.70;99.90;;;;;;4980370;28;20486;-87
2023/09/11 11:48:22;;;;;;;12.82;7.22;;;25.70;99.90;;;;;;4982808;28;20489;-86
2023/09/11 11:50:49;;;;;;;17.40;8.07;;;25.70;99.90;;;;;;4989689;28;20418;-87
2023/09/11 11:53:19;;;;;;;14.75;8.52;;;25.70;99.90;;;;;;4984647;28;20054;-86
2023/09/11 11:55:45;;;;;;;14.32;8.38;;;25.80;99.90;;;;;;4976819;28;20041;-87
2023/09/11 11:58:12;;;;;;;12.63;6.90;;;25.70;99.90;;;;;;4977258;28;20038;-86
2023/09/11 12:00:39;;;;;;;14.57;7.57;;;25.70;99.90;;;;;;4991208;28;20061;-86
2023/09/11 12:03:09;;;;;;;14.45;9.30;;;25.80;99.90;;;;;;4992673;28;20109;-86
2023/09/11 12:05:36;;;;;;;9.73;8.80;;;25.70;99.90;;;;;;4990723;28;20149;-86
2023/09/11 12:08:02;;;;;;;11.60;10.43;;;25.70;99.90;;;;;;4992614;28;20125;-87
2023/09/11 12:10:29;;;;;;;17.05;10.63;;;25.70;99.90;;;;;;4990485;28;20027;-86
2023/09/11 12:12:55;;;;;;;17.55;10.93;;;25.60;99.90;;;;;;4978871;28;20390;-86
2023/09/11 12:15:27;;;;;;;20.33;11.63;;;25.60;99.90;;;;;;4990703;28;20027;-86
2023/09/11 12:17:53;;;;;;;16.58;12.43;;;25.50;99.90;;;;;;4988868;28;20038;-87
2023/09/11 12:20:21;;;;;;;15.88;12.15;;;25.60;99.90;;;;;;4974231;28;20494;-86
2023/09/11 12:22:48;;;;;;;18.40;13.68;;;25.60;99.90;;;;;;4973908;28;20030;-86
2023/09/11 12:25:15;;;;;;;21.70;14.98;;;25.60;99.90;;;;;;4972869;28;20027;-86
2023/09/11 12:27:43;;;;;;;31.05;18.05;;;25.60;99.90;;;;;;4978081;28;20129;-86
2023/09/11 12:30:23;;;;;;;24.73;17.83;;;25.50;99.90;;;;;;4968677;28;20042;-87
2023/09/11 12:32:49;;;;;;;29.00;18.38;;;25.40;99.90;;;;;;4977679;28;20038;-85
2023/09/11 12:35:27;;;;;;;26.65;20.88;;;25.40;99.90;;;;;;4976204;28;20446;-87
2023/09/11 12:37:53;;;;;;;28.17;17.98;;;25.40;99.90;;;;;;4992643;28;20042;-90
2023/09/11 12:40:19;;;;;;;31.80;20.08;;;25.40;99.90;;;;;;4987781;28;20395;-90
2023/09/11 12:43:03;;;;;;;21.98;19.10;;;25.20;99.90;;;;;;4994169;28;20034;-91
2023/09/11 12:45:29;;;;;;;29.15;22.17;;;25.10;99.90;;;;;;4977482;28;20135;-90
2023/09/11 12:48:13;;;;;;;33.75;22.67;;;25.10;99.90;;;;;;4987869;28;20674;-92